Latest Weather Observations for Warra

IDT60801

Issued at 12:41 am EDT Saturday 17 November 2018 (issued every 10 minutes, with the page automatically refreshed every 10 minutes)

About weather observations | Map of weather stations | Latest weather observations for TAS | Other Formats
Station Details ID: 097024 Name: WARRA Lat: -43.06 Lon: 146.70 Height: 495.0 m
Data from the previous 72 hours. | See also: Recent months at Warra
Date/Time
EDT
Temp
°C
App
Temp
°C
Dew
Point
°C
Rel
Hum
%
Delta-T
°C
Wind Press
QNH
hPa
Press
MSL
hPa
Rain since
9am
mm
Dir  Spd
km/h
Gust
km/h
Spd
kts
Gust
kts
17/12:30am 3.6 0.6 2.3 91 0.5 NW 7 13 4 7 - - 0.0
17/12:00am 3.7 0.3 1.9 88 0.7 WNW 9 15 5 8 - - 0.0
 
Date/Time
EDT
Temp
°C
App
Temp
°C
Dew
Point
°C
Rel
Hum
%
Delta-T
°C
Wind Press
QNH
hPa
Press
MSL
hPa
Rain since
9am
mm
Dir  Spd
km/h
Gust
km/h
Spd
kts
Gust
kts
16/11:30pm 3.0 0.1 1.2 88 0.7 W 6 7 3 4 - - 0.0
16/11:00pm 4.3 0.8 1.3 81 1.2 W 9 19 5 10 - - 0.0
16/10:30pm 3.8 0.2 0.7 80 1.2 WNW 9 15 5 8 - - 0.0
16/10:00pm 4.2 0.6 0.7 78 1.4 WNW 9 11 5 6 - - 0.0
16/09:30pm 5.6 1.6 0.8 71 1.9 W 11 17 6 9 - - 0.0
16/09:00pm 6.2 2.3 0.9 69 2.2 WSW 11 17 6 9 - - 0.0
16/08:30pm 6.7 2.8 1.2 68 2.3 WSW 11 17 6 9 - - 0.0
16/08:00pm 7.9 4.4 1.5 64 2.7 SW 9 17 5 9 - - 0.0
16/07:30pm 9.5 5.2 0.7 54 3.7 WSW 13 20 7 11 - - 0.0
16/07:00pm 10.7 6.4 0.7 50 4.2 WSW 13 28 7 15 - - 0.0
16/06:30pm 11.9 8.2 2.1 51 4.3 WSW 11 28 6 15 - - 0.0
16/06:00pm 13.0 10.1 2.8 50 4.6 WSW 7 15 4 8 - - 0.0
16/05:30pm 12.4 8.8 2.8 52 4.3 SW 11 19 6 10 - - 0.0
16/05:00pm 12.9 10.3 4.1 55 4.1 WSW 7 17 4 9 - - 0.0
16/04:30pm 11.8 7.8 3.1 55 3.9 W 13 26 7 14 - - 0.0
16/04:00pm 11.9 8.1 3.7 57 3.8 WSW 13 22 7 12 - - 0.0
16/03:30pm 11.7 8.2 3.7 58 3.7 W 11 20 6 11 - - 0.0
16/03:00pm 11.1 7.6 3.6 60 3.4 WSW 11 20 6 11 - - 0.0
16/02:30pm 11.3 7.0 3.3 58 3.6 WSW 15 26 8 14 - - 0.0
16/02:00pm 11.0 7.1 3.3 59 3.5 W 13 24 7 13 - - 0.0
16/01:30pm 12.5 8.7 4.0 56 3.9 W 13 26 7 14 - - 0.0
16/01:00pm 12.1 8.8 4.6 60 3.5 WNW 11 20 6 11 - - 0.0
16/12:30pm 11.6 8.8 5.0 64 3.1 W 9 20 5 11 - - 0.0
16/12:00pm 11.2 7.6 4.9 65 2.9 WSW 13 20 7 11 - - 0.0
16/11:30am 10.7 7.8 4.8 67 2.7 W 9 20 5 11 - - 0.0
16/11:00am 10.9 8.6 5.9 71 2.4 N 7 13 4 7 - - 0.0
16/10:30am 10.7 8.1 6.1 73 2.2 NNE 9 15 5 8 - - 0.0
16/10:00am 9.9 7.6 5.7 75 2.0 NE 7 11 4 6 - - 0.0
16/09:30am 9.6 6.8 5.2 74 2.0 NNE 9 15 5 8 - - 0.0
16/09:00am 7.9 5.6 5.0 82 1.3 NNE 6 7 3 4 - - 0.6
16/08:30am 7.7 5.9 5.3 85 1.1 SE 4 9 2 5 - - 0.6
16/08:00am 6.6 5.2 5.4 92 0.5 NE 2 7 1 4 - - 0.6
16/07:30am 6.3 5.0 6.2 99 0.0 W 2 6 1 3 - - 0.6
16/07:00am 5.0 3.1 5.0 100 0.0 WNW 4 7 2 4 - - 0.6
16/06:30am 4.2 1.6 4.2 100 0.0 N 7 11 4 6 - - 0.6
16/06:00am 3.3 0.1 3.3 100 0.0 NNW 9 11 5 6 - - 0.6
16/05:30am 2.8 -0.4 2.8 100 0.0 N 9 9 5 5 - - 0.6
16/05:00am 2.2 -0.6 2.1 99 0.0 NW 6 9 3 5 - - 0.6
16/04:30am 2.0 0.3 1.6 97 0.2 CALM 0 0 0 0 - - 0.6
16/04:00am 2.9 0.8 2.0 94 0.4 E 2 7 1 4 - - 0.6
16/03:30am 3.7 1.0 2.4 91 0.5 S 6 7 3 4 - - 0.6
16/03:00am 5.2 2.4 3.2 87 0.9 E 7 13 4 7 - - 0.6
16/02:30am 5.4 2.2 2.9 84 1.1 ENE 9 15 5 8 - - 0.6
16/02:00am 5.5 1.9 2.7 82 1.2 NNE 11 19 6 10 - - 0.6
16/01:30am 5.3 1.6 2.5 82 1.2 NE 11 17 6 9 - - 0.6
16/01:00am 5.2 1.9 2.6 83 1.1 NNE 9 20 5 11 - - 0.6
16/12:30am 5.2 2.3 2.6 83 1.1 NE 7 13 4 7 - - 0.6
16/12:00am 5.4 2.7 2.8 83 1.1 NE 6 9 3 5 - - 0.6
 
Date/Time
EDT
Temp
°C
App
Temp
°C
Dew
Point
°C
Rel
Hum
%
Delta-T
°C
Wind Press
QNH
hPa
Press
MSL
hPa
Rain since
9am
mm
Dir  Spd
km/h
Gust
km/h
Spd
kts
Gust
kts
15/11:30pm 5.4 3.1 2.6 82 1.2 ENE 4 6 2 3 - - 0.6
15/11:00pm 5.5 3.5 2.5 81 1.3 E 2 7 1 4 - - 0.6
15/10:30pm 5.5 2.5 1.8 77 1.5 E 7 9 4 5 - - 0.6
15/10:00pm 5.6 2.8 2.3 79 1.4 ENE 6 11 3 6 - - 0.6
15/09:30pm 5.7 3.0 2.7 81 1.3 ENE 6 9 3 5 - - 0.6
15/09:00pm 5.7 2.9 3.0 83 1.2 ENE 7 9 4 5 - - 0.6
15/08:30pm 5.9 3.3 3.1 82 1.2 ENE 6 9 3 5 - - 0.6
15/08:00pm 6.3 3.4 2.8 78 1.5 E 7 11 4 6 - - 0.6
15/07:30pm 6.8 4.0 2.9 76 1.7 ESE 7 13 4 7 - - 0.6
15/07:00pm 7.4 4.1 2.7 72 2.0 SE 9 17 5 9 - - 0.6
15/06:30pm 7.9 3.9 3.0 71 2.1 ESE 13 26 7 14 - - 0.6
15/06:00pm 8.6 5.0 3.0 68 2.5 ESE 11 17 6 9 - - 0.6
15/05:30pm 8.9 5.3 3.1 67 2.6 E 11 17 6 9 - - 0.6
15/05:00pm 9.2 6.5 3.8 69 2.4 ESE 7 13 4 7 - - 0.6
15/04:30pm 9.9 6.9 4.1 67 2.6 E 9 15 5 8 - - 0.6
15/04:00pm 10.4 7.6 5.2 70 2.4 ESE 9 15 5 8 - - 0.6
15/03:30pm 10.7 7.4 4.8 67 2.7 ESE 11 19 6 10 - - 0.6
15/03:00pm 11.2 8.2 2.0 53 4.0 S 7 15 4 8 - - 0.6
15/02:30pm 11.1 7.4 2.2 54 3.9 SSW 11 22 6 12 - - 0.6
15/02:00pm 11.1 7.4 2.2 54 3.9 WSW 11 22 6 12 - - 0.6
15/01:30pm 11.1 6.6 2.4 55 3.8 W 15 26 8 14 - - 0.6
15/01:00pm 11.0 6.9 2.1 54 3.9 WSW 13 24 7 13 - - 0.6
15/12:30pm 11.3 7.2 4.1 61 3.3 WSW 15 28 8 15 - - 0.6
15/12:00pm 10.2 7.3 4.4 67 2.7 SW 9 17 5 9 - - 0.6
15/11:30am 9.3 6.8 4.9 74 2.0 SSW 7 15 4 8 - - 0.6
15/11:00am 8.2 3.8 4.6 78 1.6 WSW 17 28 9 15 - - 0.6
15/10:30am 8.7 5.1 2.7 66 2.6 SSW 11 22 6 12 - - 0.2
15/10:00am 9.5 6.4 5.5 76 1.9 SW 11 20 6 11 - - 0.2
15/09:30am 8.1 3.5 5.6 84 1.2 WSW 19 35 10 19 - - 0.2
15/09:00am 8.6 4.2 5.0 78 1.7 WSW 17 24 9 13 - - 2.4
15/08:30am 7.7 3.6 4.5 80 1.4 WSW 15 26 8 14 - - 2.4
15/08:00am 8.5 5.5 6.0 84 1.2 WSW 11 22 6 12 - - 2.4
15/07:30am 7.3 5.3 7.0 98 0.1 WSW 7 11 4 6 - - 2.4
15/07:00am 5.9 3.6 5.8 99 0.0 W 7 11 4 6 - - 2.4
15/06:30am 4.7 3.5 4.7 100 0.0 CALM 0 0 0 0 - - 2.4
15/06:00am 3.2 0.6 3.1 99 0.0 NNW 6 9 3 5 - - 2.4
15/05:30am 4.2 1.2 4.2 100 0.0 W 9 17 5 9 - - 2.4
15/05:00am 3.9 0.9 3.9 100 0.0 WNW 9 11 5 6 - - 2.4
15/04:30am 2.5 -0.2 2.4 99 0.0 WSW 6 9 3 5 - - 2.4
15/04:00am 2.6 1.0 2.5 99 0.0 CALM 0 0 0 0 - - 2.4
15/03:30am 3.1 0.3 3.0 99 0.0 WNW 7 11 4 6 - - 2.4
15/03:00am 3.5 0.7 3.4 99 0.0 W 7 11 4 6 - - 2.4
15/02:30am 3.8 1.0 3.4 97 0.2 W 7 11 4 6 - - 2.4
15/02:00am 4.5 2.0 3.6 94 0.4 WNW 6 9 3 5 - - 2.4
15/01:30am 5.4 3.0 4.2 92 0.5 W 6 11 3 6 - - 2.4
15/01:00am 5.8 3.4 4.4 91 0.6 NW 6 11 3 6 - - 2.4
15/12:30am 5.7 2.4 4.3 91 0.6 W 11 19 6 10 - - 2.4
15/12:00am 5.7 2.0 4.5 92 0.5 W 13 20 7 11 - - 2.4
 
Date/Time
EDT
Temp
°C
App
Temp
°C
Dew
Point
°C
Rel
Hum
%
Delta-T
°C
Wind Press
QNH
hPa
Press
MSL
hPa
Rain since
9am
mm
Dir  Spd
km/h
Gust
km/h
Spd
kts
Gust
kts
14/11:30pm 5.5 2.6 4.5 93 0.4 W 9 17 5 9 - - 2.4
14/11:00pm 6.2 3.3 4.5 89 0.8 W 9 17 5 9 - - 2.4
14/10:30pm 7.1 3.9 5.1 87 0.9 W 11 17 6 9 - - 2.4
14/10:00pm 7.0 4.5 5.0 87 0.9 WSW 7 11 4 6 - - 2.4
14/09:30pm 7.6 4.9 5.4 86 1.0 W 9 15 5 8 - - 2.4
14/09:00pm 7.9 4.9 6.0 88 0.9 W 11 20 6 11 - - 2.4
14/08:30pm 8.3 5.2 7.1 92 0.6 WSW 13 20 7 11 - - 2.4
14/08:00pm 8.6 5.9 7.5 93 0.5 WSW 11 17 6 9 - - 2.4
14/07:30pm 9.0 5.3 7.8 92 0.6 WSW 17 28 9 15 - - 2.4
14/07:00pm 10.1 7.8 8.9 92 0.6 SW 11 19 6 10 - - 2.4
14/06:30pm 10.4 8.9 9.0 91 0.7 NE 7 11 4 6 - - 2.4
14/06:00pm 11.8 10.6 9.4 85 1.2 N 6 7 3 4 - - 2.4
14/05:30pm 11.7 10.2 9.3 85 1.2 W 7 13 4 7 - - 2.4
14/05:00pm 12.0 9.9 9.6 85 1.2 WSW 11 20 6 11 - - 2.4
14/04:30pm 11.2 8.1 8.9 86 1.2 W 15 28 8 15 - - 2.4
14/04:00pm 11.6 9.2 9.9 89 0.9 W 13 26 7 14 - - 2.4
14/03:30pm 11.5 8.4 10.4 93 0.6 WSW 17 28 9 15 - - 2.4
14/03:00pm 11.6 9.0 10.8 95 0.4 WSW 15 28 8 15 - - 2.4
14/02:30pm 11.6 9.4 10.8 95 0.4 WSW 13 24 7 13 - - 1.4
14/02:00pm 12.1 9.4 10.3 89 1.0 WSW 15 26 8 14 - - 0.4
14/01:30pm 12.7 11.1 10.1 84 1.4 WSW 9 17 5 9 - - 0.0
14/01:00pm 13.1 10.7 8.8 75 2.2 WSW 11 20 6 11 - - 0.0
14/12:30pm 13.8 11.5 9.0 73 2.5 N 11 17 6 9 - - 0.0
14/12:00pm 13.2 11.1 8.3 72 2.5 NNW 9 17 5 9 - - 0.0
14/11:30am 12.3 10.6 8.4 77 2.0 WNW 7 11 4 6 - - 0.0
14/11:00am 12.1 9.6 8.0 76 2.1 W 11 32 6 17 - - 0.0
14/10:30am 12.2 11.1 8.5 78 1.9 WNW 4 9 2 5 - - 0.0
14/10:00am 11.6 9.8 7.9 78 1.9 W 7 15 4 8 - - 0.0
14/09:30am 12.0 9.9 8.1 77 2.0 N 9 13 5 7 - - 0.0
14/09:00am 11.2 9.4 8.1 81 1.6 SSE 7 11 4 6 - - 0.0
14/08:30am 10.9 9.3 8.1 83 1.4 NNE 6 11 3 6 - - 0.0
14/08:00am 11.1 9.3 8.0 81 1.6 NW 7 13 4 7 - - 0.0
14/07:30am 11.1 9.6 8.5 84 1.3 NNE 6 9 3 5 - - 0.0
14/07:00am 10.1 7.8 7.3 83 1.4 W 9 20 5 11 - - 0.0
14/06:30am 9.9 7.2 7.5 85 1.2 W 11 22 6 12 - - 0.0
14/06:00am 9.8 7.2 7.7 87 1.0 WNW 11 19 6 10 - - 0.0
14/05:30am 9.7 7.2 8.1 90 0.8 W 11 20 6 11 - - 0.0
14/05:00am 10.1 7.2 8.2 88 0.9 W 13 26 7 14 - - 0.0
14/04:30am 10.1 7.3 8.4 89 0.9 WNW 13 28 7 15 - - 0.0
14/04:00am 10.3 7.9 8.7 90 0.8 WNW 11 20 6 11 - - 0.0
14/03:30am 10.6 8.4 9.4 92 0.6 W 11 17 6 9 - - 0.0
14/03:00am 11.2 9.8 9.6 90 0.8 W 7 11 4 6 - - 0.0
14/02:30am 11.8 9.6 9.4 85 1.2 WNW 11 19 6 10 - - 0.0
14/02:00am 11.8 9.6 9.2 84 1.3 WNW 11 19 6 10 - - 0.0
14/01:30am 11.8 9.6 9.5 86 1.2 NW 11 20 6 11 - - 0.0
14/01:00am 12.0 9.5 9.7 86 1.2 WNW 13 20 7 11 - - 0.0

Other Formats:

Comma delimited format used in spreadsheet applications
http://www.bom.gov.au/fwo/IDT60801/IDT60801.95962.axf

JavaScript Object Notation format (JSON) in row-major order
http://www.bom.gov.au/fwo/IDT60801/IDT60801.95962.json